createdAt,value
2023-01-06T00:01:14.333Z,95.41
2023-01-06T00:05:17.696Z,95.19
2023-01-06T00:09:27.816Z,94.94
2023-01-06T00:13:33.574Z,94.86
2023-01-06T00:17:36.690Z,96.09
2023-01-06T00:21:42.599Z,95.96
2023-01-06T00:25:52.032Z,95.64
2023-01-06T00:29:58.458Z,95.49
2023-01-06T00:34:05.253Z,96.10
2023-01-06T00:38:12.280Z,95.67
2023-01-06T00:42:19.970Z,95.10
2023-01-06T00:46:27.133Z,96.11
2023-01-06T00:50:34.648Z,95.21
2023-01-06T00:54:38.395Z,95.67
2023-01-06T00:58:47.335Z,95.52
2023-01-06T01:02:56.663Z,96.33
2023-01-06T01:07:05.021Z,96.14
2023-01-06T01:11:11.162Z,96.23
2023-01-06T01:15:20.760Z,95.70
2023-01-06T01:19:32.820Z,94.89
2023-01-06T01:23:39.824Z,95.06
2023-01-06T01:27:48.963Z,95.30
2023-01-06T01:31:56.803Z,95.87
2023-01-06T01:36:13.797Z,95.78
2023-01-06T01:40:38.206Z,95.24
2023-01-06T01:45:03.758Z,95.29
2023-01-06T01:49:21.245Z,95.15
2023-01-06T01:53:36.547Z,95.42
2023-01-06T01:57:42.705Z,96.24
2023-01-06T02:01:46.533Z,96.11
2023-01-06T02:05:53.451Z,95.64
2023-01-06T02:10:05.663Z,95.87
2023-01-06T02:14:12.201Z,95.78
2023-01-06T02:18:27.148Z,95.73
2023-01-06T02:22:46.838Z,95.85
2023-01-06T02:27:17.647Z,95.53
2023-01-06T02:31:39.411Z,95.57
2023-01-06T02:35:52.304Z,96.30
2023-01-06T02:40:09.230Z,95.79
2023-01-06T02:44:19.512Z,95.69
2023-01-06T02:48:28.636Z,96.33
2023-01-06T02:52:43.717Z,95.33
2023-01-06T02:56:56.272Z,96.07
2023-01-06T03:01:03.638Z,96.22
2023-01-06T03:05:11.212Z,95.68
2023-01-06T03:09:15.891Z,96.49
2023-01-06T03:13:24.624Z,95.80
2023-01-06T03:17:28.166Z,96.04
2023-01-06T03:21:38.876Z,97.30
2023-01-06T03:25:42.522Z,96.49
2023-01-06T03:29:45.614Z,96.89
2023-01-06T03:33:55.737Z,96.80
2023-01-06T03:38:00.813Z,96.15
2023-01-06T03:42:36.281Z,97.08
2023-01-06T03:46:42.549Z,96.52
2023-01-06T03:50:50.102Z,96.87
2023-01-06T03:54:57.724Z,96.38
2023-01-06T03:59:04.867Z,96.71
2023-01-06T04:03:09.797Z,95.90
2023-01-06T04:07:16.434Z,96.66
2023-01-06T04:11:38.685Z,96.59
2023-01-06T04:15:43.014Z,96.11
2023-01-06T04:19:46.446Z,96.35
2023-01-06T04:23:49.930Z,96.30
2023-01-06T04:27:58.444Z,96.26
2023-01-06T04:32:02.606Z,96.76
2023-01-06T04:36:06.100Z,96.32
2023-01-06T04:40:11.236Z,96.53
2023-01-06T04:44:16.190Z,96.37
2023-01-06T04:48:19.184Z,95.57
2023-01-06T04:52:22.070Z,95.97
2023-01-06T04:56:26.884Z,95.79
2023-01-06T05:00:31.889Z,95.83
2023-01-06T05:04:47.035Z,96.27
2023-01-06T05:08:50.637Z,95.42
2023-01-06T05:12:54.071Z,95.84
2023-01-06T05:16:59.111Z,95.96
2023-01-06T05:21:02.059Z,96.73
2023-01-06T05:25:07.113Z,95.60
2023-01-06T05:29:20.953Z,95.79
2023-01-06T05:33:25.697Z,95.25
2023-01-06T05:37:29.309Z,95.26
2023-01-06T05:41:32.837Z,95.83
2023-01-06T05:45:36.243Z,95.17
2023-01-06T05:49:41.371Z,96.67
2023-01-06T05:53:49.858Z,95.05
2023-01-06T05:57:56.143Z,95.35
2023-01-06T06:02:03.119Z,95.33
2023-01-06T06:06:19.857Z,95.87
2023-01-06T06:10:23.900Z,94.87
2023-01-06T06:14:29.329Z,95.48
2023-01-06T06:18:46.491Z,95.25
2023-01-06T06:22:55.242Z,95.37
2023-01-06T06:27:06.781Z,95.17
2023-01-06T06:31:13.718Z,95.27
2023-01-06T06:35:34.668Z,95.85
2023-01-06T06:39:46.049Z,94.84
2023-01-06T06:43:50.465Z,94.38
2023-01-06T06:47:56.260Z,95.38
2023-01-06T06:52:00.148Z,95.81
2023-01-06T06:56:08.771Z,95.47
2023-01-06T07:00:16.869Z,94.66
2023-01-06T07:04:24.360Z,94.97
2023-01-06T07:08:33.975Z,95.25
2023-01-06T07:12:57.528Z,93.74
2023-01-06T07:17:03.741Z,94.61
2023-01-06T07:21:13.594Z,95.30
2023-01-06T07:25:24.253Z,94.87
2023-01-06T07:29:30.474Z,95.57
2023-01-06T07:33:35.168Z,94.91
2023-01-06T07:37:39.356Z,94.48
2023-01-06T07:41:42.759Z,94.09
2023-01-06T07:45:55.818Z,94.26
2023-01-06T07:50:02.210Z,95.19
2023-01-06T07:54:06.057Z,94.87
2023-01-06T07:58:22.089Z,95.08
2023-01-06T08:02:32.587Z,94.60
2023-01-06T08:06:37.831Z,95.36
2023-01-06T08:10:46.725Z,95.19
2023-01-06T08:14:56.892Z,95.02
2023-01-06T08:19:04.084Z,95.84
2023-01-06T08:23:09.619Z,94.53
2023-01-06T08:27:19.139Z,94.68
2023-01-06T08:31:28.352Z,94.72
2023-01-06T08:35:45.323Z,94.71
2023-01-06T08:40:02.217Z,95.05
2023-01-06T08:44:14.870Z,94.72
2023-01-06T08:48:26.594Z,95.08
2023-01-06T08:52:37.187Z,94.94
2023-01-06T08:56:43.823Z,94.98
2023-01-06T09:00:54.234Z,93.79
2023-01-06T09:04:58.954Z,93.43
2023-01-06T09:09:08.200Z,93.68
2023-01-06T09:17:36.995Z,92.57
2023-01-06T09:21:46.386Z,92.97
2023-01-06T09:26:09.783Z,92.96
2023-01-06T09:30:39.060Z,92.40
2023-01-06T09:34:42.081Z,92.24
2023-01-06T09:38:49.694Z,92.54
2023-01-06T09:43:04.383Z,91.74
2023-01-06T09:47:16.598Z,92.70
2023-01-06T09:51:27.433Z,91.92
2023-01-06T09:55:34.534Z,93.43
2023-01-06T09:59:50.455Z,92.74
2023-01-06T10:03:54.733Z,93.25
2023-01-06T10:08:05.563Z,92.63
2023-01-06T10:12:22.781Z,93.66
2023-01-06T10:16:39.015Z,93.72
2023-01-06T10:20:51.842Z,94.31
2023-01-06T10:24:56.352Z,93.53
2023-01-06T10:29:19.177Z,93.48
2023-01-06T10:37:39.388Z,91.81
2023-01-06T10:42:18.848Z,91.06
2023-01-06T10:46:26.706Z,91.26
2023-01-06T10:50:47.113Z,91.78
2023-01-06T10:54:56.327Z,92.33
2023-01-06T10:59:05.771Z,91.75
2023-01-06T11:03:32.866Z,89.92
2023-01-06T11:07:49.663Z,91.26
2023-01-06T11:12:00.324Z,90.75
2023-01-06T11:16:07.926Z,90.52
2023-01-06T11:20:41.704Z,91.45
2023-01-06T11:24:56.522Z,90.17
2023-01-06T11:29:25.343Z,90.11
2023-01-06T11:33:32.219Z,90.95
2023-01-06T11:37:44.114Z,90.89
2023-01-06T11:41:52.618Z,90.80
2023-01-06T11:46:01.464Z,89.48
2023-01-06T11:50:06.189Z,89.15
2023-01-06T11:54:27.488Z,89.66
2023-01-06T11:58:41.004Z,89.37
2023-01-06T12:02:53.616Z,90.01
2023-01-06T12:07:00.604Z,89.74
2023-01-06T12:11:08.589Z,89.51
2023-01-06T12:15:14.895Z,90.65
2023-01-06T12:19:23.960Z,87.71
2023-01-06T12:23:33.027Z,89.32
2023-01-06T12:27:41.564Z,89.44
2023-01-06T12:31:57.734Z,89.59
2023-01-06T12:36:02.747Z,89.40
2023-01-06T12:40:13.817Z,90.27
2023-01-06T12:44:22.133Z,89.88
2023-01-06T12:48:36.432Z,90.24
2023-01-06T12:52:44.726Z,91.29
2023-01-06T12:57:01.101Z,92.20
2023-01-06T13:01:17.561Z,93.14
2023-01-06T13:05:31.260Z,93.32
2023-01-06T13:09:44.309Z,94.21
2023-01-06T13:13:59.796Z,93.96
2023-01-06T13:18:16.224Z,95.08
2023-01-06T13:22:25.194Z,94.24
2023-01-06T13:26:43.353Z,94.49
2023-01-06T13:31:26.726Z,94.50
2023-01-06T13:36:10.361Z,94.05
2023-01-06T13:40:19.947Z,93.89
2023-01-06T13:44:30.492Z,93.57
2023-01-06T13:49:08.919Z,93.43
2023-01-06T13:53:28.700Z,94.31
2023-01-06T13:57:39.701Z,94.04
2023-01-06T14:01:45.087Z,94.15
2023-01-06T14:05:54.250Z,93.74
2023-01-06T14:10:00.691Z,93.47
2023-01-06T14:14:12.258Z,94.48
2023-01-06T14:18:38.999Z,93.72
2023-01-06T14:22:43.957Z,93.23
2023-01-06T14:26:58.982Z,93.66
2023-01-06T14:31:48.874Z,92.69
2023-01-06T14:36:04.491Z,93.40
2023-01-06T14:40:10.477Z,93.10
2023-01-06T14:44:30.345Z,93.34
2023-01-06T14:48:41.380Z,92.91
2023-01-06T14:52:56.334Z,93.96
2023-01-06T14:57:01.137Z,93.69
2023-01-06T15:01:08.728Z,94.02
2023-01-06T15:05:19.943Z,94.39
2023-01-06T15:09:27.645Z,93.75
2023-01-06T15:13:32.632Z,94.21
2023-01-06T15:17:36.467Z,94.56
2023-01-06T15:21:45.427Z,94.83
2023-01-06T15:25:52.982Z,94.72
2023-01-06T15:29:58.861Z,93.98
2023-01-06T15:34:03.765Z,93.69
2023-01-06T15:38:28.945Z,94.08
2023-01-06T15:42:39.502Z,94.39
2023-01-06T15:46:43.565Z,93.54
2023-01-06T15:50:47.241Z,93.98
2023-01-06T15:54:54.953Z,94.16
2023-01-06T15:59:01.416Z,94.79
2023-01-06T16:03:06.167Z,94.62
2023-01-06T16:07:26.662Z,94.51
2023-01-06T16:11:51.377Z,93.79
2023-01-06T16:15:59.639Z,94.53
2023-01-06T16:20:04.822Z,94.42
2023-01-06T16:24:16.231Z,94.72
2023-01-06T16:28:28.882Z,95.14
2023-01-06T16:32:38.511Z,94.65
2023-01-06T16:36:43.322Z,95.24
2023-01-06T16:40:48.114Z,95.22
2023-01-06T16:45:01.412Z,94.81
2023-01-06T16:49:10.837Z,94.39
2023-01-06T16:53:18.564Z,95.28
2023-01-06T16:57:23.832Z,94.90
2023-01-06T17:01:37.628Z,95.43
2023-01-06T17:05:43.214Z,96.05
2023-01-06T17:09:46.285Z,95.64
2023-01-06T17:13:54.047Z,95.58
2023-01-06T17:17:59.236Z,95.08
2023-01-06T17:22:14.648Z,95.88
2023-01-06T17:26:20.148Z,96.01
2023-01-06T17:30:23.202Z,95.93
2023-01-06T17:34:31.797Z,96.17
2023-01-06T17:38:36.607Z,95.30
2023-01-06T17:42:42.434Z,95.98
2023-01-06T17:46:45.840Z,95.76
2023-01-06T17:50:54.190Z,95.59
2023-01-06T17:55:18.044Z,96.29
2023-01-06T17:59:23.187Z,96.55
2023-01-06T18:03:27.548Z,96.03
2023-01-06T18:07:30.598Z,95.18
2023-01-06T18:11:36.286Z,94.78
2023-01-06T18:15:39.404Z,94.42
2023-01-06T18:19:42.668Z,95.24
2023-01-06T18:23:47.412Z,95.08
2023-01-06T18:27:52.408Z,95.15
2023-01-06T18:31:55.703Z,95.20
2023-01-06T18:36:04.818Z,95.26
2023-01-06T18:40:11.025Z,94.71
2023-01-06T18:44:20.648Z,94.12
2023-01-06T18:48:29.875Z,94.40
2023-01-06T18:52:43.845Z,94.23
2023-01-06T18:56:46.829Z,93.93
2023-01-06T19:00:54.092Z,94.03
2023-01-06T19:04:57.312Z,93.50
2023-01-06T19:09:03.155Z,93.64
2023-01-06T19:13:11.719Z,93.60
2023-01-06T19:17:23.410Z,94.25
2023-01-06T19:21:26.330Z,93.95
2023-01-06T19:25:34.692Z,94.11
2023-01-06T19:29:37.688Z,93.76
2023-01-06T19:33:44.936Z,93.51
2023-01-06T19:37:48.153Z,93.72
2023-01-06T19:41:58.328Z,94.21
2023-01-06T19:46:04.207Z,93.61
2023-01-06T19:50:20.260Z,93.23
2023-01-06T19:54:28.122Z,93.36
2023-01-06T19:58:36.561Z,93.65
2023-01-06T20:02:45.370Z,93.31
2023-01-06T20:06:49.963Z,94.31
2023-01-06T20:10:53.098Z,94.45
2023-01-06T20:15:06.962Z,94.25
2023-01-06T20:19:10.980Z,94.29
2023-01-06T20:23:16.200Z,94.26
2023-01-06T20:27:19.270Z,94.27
2023-01-06T20:31:22.397Z,94.49
2023-01-06T20:35:26.691Z,93.59
2023-01-06T20:39:31.194Z,94.00
2023-01-06T20:43:34.383Z,94.23
2023-01-06T20:47:37.879Z,93.62
2023-01-06T20:51:41.945Z,93.91
2023-01-06T20:55:47.195Z,93.41
2023-01-06T20:59:51.067Z,93.68
2023-01-06T21:03:53.755Z,94.37
2023-01-06T21:07:58.404Z,93.72
2023-01-06T21:12:03.247Z,93.94
2023-01-06T21:16:06.616Z,93.66
2023-01-06T21:20:12.138Z,94.21
2023-01-06T21:24:15.607Z,94.37
2023-01-06T21:28:20.096Z,93.42
2023-01-06T21:32:23.348Z,94.27
2023-01-06T21:36:26.873Z,94.18
2023-01-06T21:40:30.849Z,94.76
2023-01-06T21:44:43.630Z,94.18
2023-01-06T21:48:49.246Z,94.29
2023-01-06T21:52:56.679Z,93.56
2023-01-06T21:57:00.700Z,94.34
2023-01-06T22:01:10.321Z,94.70
2023-01-06T22:05:15.186Z,94.21
2023-01-06T22:09:27.941Z,93.92
2023-01-06T22:13:33.631Z,93.94
2023-01-06T22:17:41.309Z,94.40
2023-01-06T22:21:52.057Z,94.16
2023-01-06T22:25:58.380Z,93.84
2023-01-06T22:30:01.811Z,93.93
2023-01-06T22:34:17.167Z,93.31
2023-01-06T22:38:20.710Z,94.75
2023-01-06T22:42:34.897Z,94.53
2023-01-06T22:46:38.281Z,95.36
2023-01-06T22:50:43.403Z,95.12
2023-01-06T22:54:46.427Z,94.51
2023-01-06T22:58:49.895Z,94.23
2023-01-06T23:02:55.034Z,95.77
2023-01-06T23:07:03.269Z,95.63
2023-01-06T23:11:09.933Z,94.70
2023-01-06T23:15:14.118Z,96.53
2023-01-06T23:19:19.375Z,95.06
2023-01-06T23:23:26.390Z,94.82
2023-01-06T23:27:31.546Z,95.36
2023-01-06T23:31:38.775Z,96.17
2023-01-06T23:35:43.163Z,95.72
2023-01-06T23:39:50.293Z,95.65
2023-01-06T23:43:54.365Z,95.11
2023-01-06T23:47:57.524Z,95.60
2023-01-06T23:52:02.020Z,95.12
2023-01-06T23:56:12.283Z,95.03
